QTR8454 UAAA-VHHH
Flight info
| Callsign | QTR8454 |
|---|---|
| Flight time | 4h 59m |
| Altitude | 39000 |
| Route | PIGAL1A PIGAL M610 RULAD/K0867S1190 A460 XKC L888 SADAN/K0885S1250 Y1 OMBON W245 OVRAL B330 KWE W181 DUDIT A599 POU R473 SIERA |
| Aircraft | B77L/H-SDE1E3FGHIJ1J3J4J5M1P2RWXYZ/LB1D1G1 |
Departure
| Time | 2026-05-03 23:40 |
|---|---|
| Airport | Almaty International Airport (UAAA) |
Arrival
| Time | 2026-05-04 04:40 |
|---|---|
| Airport | Hong Kong International Airport (VHHH) |
| Time | Latitude | Longitude | Altitude | Speed | Heading |
|---|---|---|---|---|---|
| 2026-05-03 23:18 | 43.35106 | 77.02058 | 2223 ft | 0 kts | 3° |
| 2026-05-03 23:25 | 43.35104 | 77.02058 | 2224 ft | 1 kts | 3° |
| 2026-05-03 23:26 | 43.35090 | 77.02057 | 2225 ft | 2 kts | 3° |
| 2026-05-03 23:26 | 43.35075 | 77.02055 | 2227 ft | 2 kts | 3° |
| 2026-05-03 23:26 | 43.35059 | 77.02055 | 2227 ft | 2 kts | 9° |
| 2026-05-03 23:26 | 43.35045 | 77.02047 | 2226 ft | 2 kts | 34° |
| 2026-05-03 23:27 | 43.35034 | 77.02034 | 2225 ft | 2 kts | 52° |
| 2026-05-03 23:27 | 43.35026 | 77.02016 | 2224 ft | 2 kts | 72° |
| 2026-05-03 23:27 | 43.35023 | 77.01996 | 2224 ft | 2 kts | 90° |
| 2026-05-03 23:27 | 43.35025 | 77.01976 | 2223 ft | 2 kts | 95° |
| 2026-05-03 23:28 | 43.35025 | 77.01955 | 2223 ft | 2 kts | 92° |
| 2026-05-03 23:28 | 43.35026 | 77.01935 | 2223 ft | 2 kts | 92° |
| 2026-05-03 23:28 | 43.35027 | 77.01920 | 2223 ft | 0 kts | 92° |
| 2026-05-03 23:32 | 43.35026 | 77.01940 | 2223 ft | 6 kts | 92° |
| 2026-05-03 23:32 | 43.35022 | 77.02040 | 2224 ft | 14 kts | 93° |
| 2026-05-03 23:33 | 43.35015 | 77.02182 | 2225 ft | 11 kts | 103° |
| 2026-05-03 23:33 | 43.34974 | 77.02258 | 2227 ft | 10 kts | 138° |
| 2026-05-03 23:33 | 43.34909 | 77.02338 | 2229 ft | 14 kts | 139° |
| 2026-05-03 23:33 | 43.34827 | 77.02436 | 2233 ft | 16 kts | 138° |
| 2026-05-03 23:34 | 43.34780 | 77.02507 | 2234 ft | 10 kts | 114° |
| 2026-05-03 23:34 | 43.34793 | 77.02634 | 2234 ft | 17 kts | 62° |
| 2026-05-03 23:34 | 43.34875 | 77.02805 | 2232 ft | 24 kts | 56° |
| 2026-05-03 23:34 | 43.34976 | 77.03008 | 2232 ft | 25 kts | 56° |
| 2026-05-03 23:35 | 43.35074 | 77.03205 | 2232 ft | 24 kts | 55° |
| 2026-05-03 23:35 | 43.35164 | 77.03388 | 2233 ft | 22 kts | 56° |
| 2026-05-03 23:35 | 43.35262 | 77.03585 | 2235 ft | 27 kts | 55° |
| 2026-05-03 23:35 | 43.35377 | 77.03818 | 2238 ft | 31 kts | 56° |
| 2026-05-03 23:36 | 43.35496 | 77.04059 | 2240 ft | 29 kts | 55° |
| 2026-05-03 23:36 | 43.35564 | 77.04195 | 2241 ft | 28 kts | 56° |
| 2026-05-03 23:36 | 43.35657 | 77.04386 | 2242 ft | 26 kts | 56° |
| 2026-05-03 23:37 | 43.35759 | 77.04589 | 2243 ft | 24 kts | 56° |
| 2026-05-03 23:37 | 43.35854 | 77.04781 | 2243 ft | 23 kts | 56° |
| 2026-05-03 23:37 | 43.35944 | 77.04965 | 2243 ft | 22 kts | 56° |
| 2026-05-03 23:37 | 43.36041 | 77.05158 | 2243 ft | 27 kts | 55° |
| 2026-05-03 23:38 | 43.36165 | 77.05408 | 2244 ft | 34 kts | 56° |
| 2026-05-03 23:38 | 43.36275 | 77.05631 | 2246 ft | 33 kts | 56° |
| 2026-05-03 23:38 | 43.36401 | 77.05885 | 2248 ft | 30 kts | 56° |
| 2026-05-03 23:38 | 43.36485 | 77.06055 | 2249 ft | 11 kts | 56° |
| 2026-05-03 23:39 | 43.36505 | 77.06111 | 2249 ft | 4 kts | 91° |
| 2026-05-03 23:39 | 43.36477 | 77.06155 | 2249 ft | 9 kts | 144° |
| 2026-05-03 23:39 | 43.36410 | 77.06200 | 2251 ft | 10 kts | 174° |
| 2026-05-03 23:39 | 43.36338 | 77.06185 | 2252 ft | 10 kts | 198° |
| 2026-05-03 23:40 | 43.36291 | 77.06123 | 2252 ft | 11 kts | 235° |
| 2026-05-03 23:40 | 43.36155 | 77.05849 | 2250 ft | 73 kts | 235° |
| 2026-05-03 23:40 | 43.35693 | 77.04915 | 2248 ft | 160 kts | 236° |
| 2026-05-03 23:40 | 43.35007 | 77.03509 | 2871 ft | 184 kts | 236° |
| 2026-05-03 23:41 | 43.34296 | 77.02084 | 3850 ft | 187 kts | 236° |
| 2026-05-03 23:41 | 43.33554 | 77.00533 | 4392 ft | 203 kts | 242° |
| 2026-05-03 23:41 | 43.32822 | 76.98756 | 4967 ft | 220 kts | 239° |
| 2026-05-03 23:41 | 43.31960 | 76.96924 | 5560 ft | 236 kts | 237° |
| 2026-05-03 23:42 | 43.31022 | 76.94985 | 6177 ft | 253 kts | 241° |
| 2026-05-03 23:42 | 43.30467 | 76.92627 | 6776 ft | 268 kts | 268° |
| 2026-05-03 23:42 | 43.30803 | 76.90099 | 7465 ft | 279 kts | 297° |
| 2026-05-03 23:42 | 43.32041 | 76.88087 | 8279 ft | 282 kts | 327° |
| 2026-05-03 23:43 | 43.33833 | 76.86937 | 9249 ft | 283 kts | 340° |
| 2026-05-03 23:43 | 43.35672 | 76.86025 | 10191 ft | 286 kts | 341° |
| 2026-05-03 23:43 | 43.37587 | 76.85093 | 10815 ft | 298 kts | 341° |
| 2026-05-03 23:43 | 43.39626 | 76.84193 | 11262 ft | 318 kts | 348° |
| 2026-05-03 23:44 | 43.41885 | 76.83843 | 11813 ft | 335 kts | 1° |
| 2026-05-03 23:44 | 43.44253 | 76.84248 | 12522 ft | 351 kts | 14° |
| 2026-05-03 23:44 | 43.46556 | 76.85527 | 13213 ft | 366 kts | 30° |
| 2026-05-03 23:44 | 43.48584 | 76.87708 | 13984 ft | 382 kts | 46° |
| 2026-05-03 23:45 | 43.50129 | 76.90716 | 14943 ft | 393 kts | 63° |
| 2026-05-03 23:45 | 43.50991 | 76.94353 | 16151 ft | 401 kts | 79° |
| 2026-05-03 23:45 | 43.51299 | 76.98136 | 17361 ft | 406 kts | 84° |
| 2026-05-03 23:45 | 43.51537 | 77.02035 | 18519 ft | 410 kts | 85° |
| 2026-05-03 23:46 | 43.51775 | 77.05982 | 19634 ft | 415 kts | 85° |
| 2026-05-03 23:46 | 43.52010 | 77.09915 | 20612 ft | 423 kts | 85° |
| 2026-05-03 23:46 | 43.52255 | 77.14027 | 21453 ft | 433 kts | 85° |
| 2026-05-03 23:46 | 43.52500 | 77.18175 | 22322 ft | 443 kts | 85° |
| 2026-05-03 23:47 | 43.52753 | 77.22474 | 23244 ft | 450 kts | 85° |
| 2026-05-03 23:47 | 43.52984 | 77.26431 | 24169 ft | 454 kts | 86° |
| 2026-05-03 23:47 | 43.53170 | 77.29626 | 24920 ft | 457 kts | 86° |
| 2026-05-03 23:47 | 43.53389 | 77.33397 | 25728 ft | 462 kts | 86° |
| 2026-05-03 23:48 | 43.53641 | 77.37787 | 26586 ft | 468 kts | 86° |
| 2026-05-03 23:48 | 43.53900 | 77.42300 | 27436 ft | 475 kts | 86° |
| 2026-05-03 23:48 | 43.54159 | 77.46859 | 28228 ft | 482 kts | 86° |
| 2026-05-03 23:48 | 43.54420 | 77.51462 | 29012 ft | 489 kts | 86° |
| 2026-05-03 23:49 | 43.54686 | 77.56189 | 29884 ft | 494 kts | 86° |
| 2026-05-03 23:49 | 43.54951 | 77.60941 | 30914 ft | 496 kts | 86° |
| 2026-05-03 23:49 | 43.55216 | 77.65684 | 32019 ft | 494 kts | 87° |
| 2026-05-03 23:49 | 43.55479 | 77.70420 | 33089 ft | 492 kts | 88° |
| 2026-05-03 23:50 | 43.55735 | 77.75076 | 34025 ft | 492 kts | 88° |
| 2026-05-03 23:50 | 43.55908 | 77.78226 | 34510 ft | 492 kts | 88° |
| 2026-05-03 23:50 | 43.56253 | 77.84546 | 35410 ft | 493 kts | 88° |
| 2026-05-03 23:50 | 43.56509 | 77.89269 | 36070 ft | 492 kts | 88° |
| 2026-05-03 23:51 | 43.56769 | 77.94081 | 36832 ft | 493 kts | 88° |
| 2026-05-03 23:51 | 43.57295 | 78.03838 | 38144 ft | 496 kts | 88° |
| 2026-05-03 23:51 | 43.57411 | 78.08604 | 38650 ft | 495 kts | 93° |
| 2026-05-03 23:52 | 43.57345 | 78.13300 | 39120 ft | 496 kts | 94° |
| 2026-05-03 23:52 | 43.57258 | 78.18098 | 39238 ft | 500 kts | 94° |
| 2026-05-03 23:52 | 43.57083 | 78.27676 | 39219 ft | 497 kts | 94° |
| 2026-05-03 23:53 | 43.56902 | 78.37222 | 39215 ft | 499 kts | 94° |
| 2026-05-03 23:53 | 43.56716 | 78.46800 | 39230 ft | 497 kts | 94° |
| 2026-05-03 23:54 | 43.56523 | 78.56375 | 39221 ft | 490 kts | 94° |
| 2026-05-03 23:54 | 43.56323 | 78.65872 | 39233 ft | 499 kts | 95° |
| 2026-05-03 23:55 | 43.56114 | 78.75449 | 39222 ft | 498 kts | 95° |
| 2026-05-03 23:55 | 43.55898 | 78.85007 | 39223 ft | 498 kts | 95° |
| 2026-05-03 23:56 | 43.55674 | 78.94548 | 39214 ft | 498 kts | 95° |
| 2026-05-03 23:56 | 43.55442 | 79.04128 | 39189 ft | 499 kts | 95° |
| 2026-05-03 23:57 | 43.55202 | 79.13679 | 39210 ft | 499 kts | 95° |
| 2026-05-03 23:57 | 43.54971 | 79.22602 | 39187 ft | 499 kts | 95° |
| 2026-05-03 23:59 | 43.54897 | 79.25418 | 39184 ft | 499 kts | 95° |
| 2026-05-04 00:00 | 43.54699 | 79.32857 | 39180 ft | 485 kts | 95° |
| 2026-05-04 00:00 | 43.54441 | 79.42142 | 39179 ft | 490 kts | 95° |
| 2026-05-04 00:01 | 43.54166 | 79.51721 | 39187 ft | 500 kts | 95° |
| 2026-05-04 00:01 | 43.53886 | 79.61295 | 39166 ft | 500 kts | 95° |
| 2026-05-04 00:02 | 43.53597 | 79.70924 | 39192 ft | 499 kts | 96° |
| 2026-05-04 00:02 | 43.53299 | 79.80567 | 39181 ft | 501 kts | 96° |
| 2026-05-04 00:03 | 43.52994 | 79.90171 | 39183 ft | 500 kts | 96° |
| 2026-05-04 00:03 | 43.52679 | 79.99834 | 39170 ft | 502 kts | 95° |
| 2026-05-04 00:04 | 43.52359 | 80.09392 | 39195 ft | 502 kts | 96° |
| 2026-05-04 00:04 | 43.52029 | 80.19035 | 39197 ft | 503 kts | 96° |
| 2026-05-04 00:05 | 43.51694 | 80.28576 | 39172 ft | 504 kts | 96° |
| 2026-05-04 00:05 | 43.51349 | 80.38197 | 39199 ft | 504 kts | 96° |
| 2026-05-04 00:06 | 43.50994 | 80.47824 | 39198 ft | 505 kts | 96° |
| 2026-05-04 00:06 | 43.50631 | 80.57468 | 39214 ft | 505 kts | 96° |
| 2026-05-04 00:07 | 43.49575 | 80.66936 | 39206 ft | 499 kts | 111° |
| 2026-05-04 00:07 | 43.46724 | 80.75513 | 39216 ft | 486 kts | 128° |
| 2026-05-04 00:08 | 43.42466 | 80.82478 | 39215 ft | 477 kts | 141° |
| 2026-05-04 00:08 | 43.37637 | 80.88753 | 39213 ft | 475 kts | 142° |
| 2026-05-04 00:09 | 43.32832 | 80.94897 | 39222 ft | 474 kts | 142° |
| 2026-05-04 00:09 | 43.27982 | 81.01038 | 39241 ft | 475 kts | 143° |
| 2026-05-04 00:10 | 43.23136 | 81.07139 | 39272 ft | 475 kts | 143° |
| 2026-05-04 00:10 | 43.18278 | 81.13227 | 39267 ft | 474 kts | 143° |
| 2026-05-04 00:11 | 43.13393 | 81.19328 | 39254 ft | 475 kts | 143° |
| 2026-05-04 00:11 | 43.08539 | 81.25375 | 39262 ft | 473 kts | 143° |
| 2026-05-04 00:12 | 43.03672 | 81.31422 | 39254 ft | 473 kts | 142° |
| 2026-05-04 00:12 | 42.98807 | 81.37453 | 39255 ft | 473 kts | 143° |
| 2026-05-04 00:13 | 42.93955 | 81.43454 | 39247 ft | 472 kts | 143° |
| 2026-05-04 00:13 | 42.89074 | 81.49475 | 39269 ft | 474 kts | 143° |
| 2026-05-04 00:14 | 42.84159 | 81.55526 | 39285 ft | 474 kts | 142° |
| 2026-05-04 00:14 | 42.79299 | 81.61496 | 39320 ft | 474 kts | 143° |
| 2026-05-04 00:15 | 42.74386 | 81.67518 | 39333 ft | 474 kts | 143° |
| 2026-05-04 00:15 | 42.69500 | 81.73493 | 39380 ft | 473 kts | 143° |
| 2026-05-04 00:16 | 42.64439 | 81.79250 | 39381 ft | 473 kts | 146° |
| 2026-05-04 00:16 | 42.59354 | 81.84834 | 39377 ft | 471 kts | 146° |
| 2026-05-04 00:17 | 42.54267 | 81.90428 | 39385 ft | 472 kts | 146° |
| 2026-05-04 00:17 | 42.49177 | 81.96029 | 39394 ft | 470 kts | 146° |
| 2026-05-04 00:18 | 42.44103 | 82.01602 | 39361 ft | 473 kts | 146° |
| 2026-05-04 00:18 | 42.39001 | 82.07201 | 39341 ft | 473 kts | 146° |
| 2026-05-04 00:19 | 42.33894 | 82.12794 | 39324 ft | 472 kts | 146° |
| 2026-05-04 00:19 | 42.28811 | 82.18349 | 39325 ft | 472 kts | 146° |
| 2026-05-04 00:20 | 42.23684 | 82.23943 | 39316 ft | 473 kts | 146° |
| 2026-05-04 00:20 | 42.18585 | 82.29497 | 39302 ft | 472 kts | 146° |
| 2026-05-04 00:21 | 42.13487 | 82.35039 | 39259 ft | 471 kts | 146° |
| 2026-05-04 00:21 | 42.08422 | 82.40532 | 39232 ft | 472 kts | 146° |
| 2026-05-04 00:22 | 42.03299 | 82.46078 | 39209 ft | 469 kts | 146° |
| 2026-05-04 00:22 | 41.98234 | 82.51547 | 39218 ft | 471 kts | 146° |
| 2026-05-04 00:23 | 41.93115 | 82.57064 | 39198 ft | 470 kts | 146° |
| 2026-05-04 00:23 | 41.88033 | 82.62530 | 39188 ft | 469 kts | 146° |
| 2026-05-04 00:24 | 41.82938 | 82.67998 | 39154 ft | 469 kts | 147° |
| 2026-05-04 00:24 | 41.77837 | 82.73460 | 39139 ft | 469 kts | 147° |
| 2026-05-04 00:25 | 41.72732 | 82.78915 | 39109 ft | 470 kts | 147° |
| 2026-05-04 00:25 | 41.67803 | 82.84682 | 39097 ft | 474 kts | 137° |
| 2026-05-04 00:26 | 41.63932 | 82.91942 | 39099 ft | 484 kts | 128° |
| 2026-05-04 00:26 | 41.60303 | 82.99504 | 39089 ft | 484 kts | 128° |
| 2026-05-04 00:27 | 41.56676 | 83.07020 | 39073 ft | 484 kts | 128° |
| 2026-05-04 00:27 | 41.53022 | 83.14562 | 39060 ft | 486 kts | 128° |
| 2026-05-04 00:28 | 41.49340 | 83.22132 | 39065 ft | 485 kts | 128° |
| 2026-05-04 00:28 | 41.45680 | 83.29636 | 39060 ft | 488 kts | 128° |
| 2026-05-04 00:29 | 41.41965 | 83.37231 | 39052 ft | 489 kts | 128° |
| 2026-05-04 00:29 | 41.38266 | 83.44774 | 39053 ft | 488 kts | 128° |
| 2026-05-04 00:30 | 41.34518 | 83.52396 | 39049 ft | 491 kts | 128° |
| 2026-05-04 00:30 | 41.30817 | 83.59908 | 39047 ft | 487 kts | 128° |
| 2026-05-04 00:31 | 41.27060 | 83.67511 | 39032 ft | 490 kts | 129° |
| 2026-05-04 00:31 | 41.23318 | 83.75064 | 39021 ft | 492 kts | 129° |
| 2026-05-04 00:32 | 41.19558 | 83.82636 | 39025 ft | 491 kts | 128° |
| 2026-05-04 00:32 | 41.15801 | 83.90185 | 39023 ft | 491 kts | 129° |
| 2026-05-04 00:33 | 41.10121 | 84.01559 | 39010 ft | 495 kts | 128° |
| 2026-05-04 00:34 | 41.06315 | 84.09157 | 39026 ft | 498 kts | 129° |
| 2026-05-04 00:34 | 41.02484 | 84.16790 | 39024 ft | 495 kts | 128° |
| 2026-05-04 00:35 | 40.98670 | 84.24366 | 39016 ft | 497 kts | 129° |
| 2026-05-04 00:35 | 40.94854 | 84.31931 | 39019 ft | 496 kts | 128° |
| 2026-05-04 00:36 | 40.90997 | 84.39552 | 39012 ft | 500 kts | 128° |
| 2026-05-04 00:36 | 40.87162 | 84.47118 | 39015 ft | 497 kts | 128° |
| 2026-05-04 00:37 | 40.83302 | 84.54716 | 39009 ft | 497 kts | 128° |
| 2026-05-04 00:37 | 40.79455 | 84.62269 | 39008 ft | 499 kts | 128° |
| 2026-05-04 00:38 | 40.75583 | 84.69856 | 38998 ft | 497 kts | 129° |
| 2026-05-04 00:38 | 40.71700 | 84.77441 | 39029 ft | 500 kts | 129° |
| 2026-05-04 00:39 | 40.67811 | 84.85023 | 38982 ft | 498 kts | 129° |
| 2026-05-04 00:39 | 40.63947 | 84.92539 | 39013 ft | 499 kts | 129° |
| 2026-05-04 00:40 | 40.60040 | 85.00117 | 39010 ft | 499 kts | 129° |
| 2026-05-04 00:40 | 40.56130 | 85.07682 | 39013 ft | 501 kts | 129° |
| 2026-05-04 00:41 | 40.52230 | 85.15212 | 39010 ft | 501 kts | 129° |
| 2026-05-04 00:41 | 40.48296 | 85.22787 | 39004 ft | 502 kts | 129° |
| 2026-05-04 00:42 | 40.44360 | 85.30350 | 39012 ft | 502 kts | 129° |
| 2026-05-04 00:42 | 40.40406 | 85.37928 | 39024 ft | 502 kts | 129° |
| 2026-05-04 00:43 | 40.36459 | 85.45471 | 39013 ft | 506 kts | 129° |
| 2026-05-04 00:43 | 40.32486 | 85.53053 | 39013 ft | 500 kts | 129° |
| 2026-05-04 00:44 | 40.28507 | 85.60619 | 38991 ft | 505 kts | 129° |
| 2026-05-04 00:44 | 40.24539 | 85.68152 | 39013 ft | 505 kts | 129° |
| 2026-05-04 00:45 | 40.20577 | 85.75655 | 39006 ft | 503 kts | 129° |
| 2026-05-04 00:45 | 40.16591 | 85.83185 | 39007 ft | 504 kts | 129° |
| 2026-05-04 00:46 | 40.12591 | 85.90721 | 39022 ft | 506 kts | 129° |
| 2026-05-04 00:46 | 40.08637 | 85.98273 | 39012 ft | 506 kts | 124° |
| 2026-05-04 00:47 | 40.05754 | 86.06735 | 39041 ft | 515 kts | 112° |
| 2026-05-04 00:47 | 40.03391 | 86.15537 | 39056 ft | 517 kts | 112° |
| 2026-05-04 00:48 | 40.01004 | 86.24368 | 39040 ft | 515 kts | 112° |
| 2026-05-04 00:48 | 39.98606 | 86.33176 | 39029 ft | 514 kts | 112° |
| 2026-05-04 00:49 | 39.96217 | 86.41898 | 39037 ft | 514 kts | 112° |
| 2026-05-04 00:49 | 39.93792 | 86.50709 | 39044 ft | 517 kts | 112° |
| 2026-05-04 00:50 | 39.91367 | 86.59484 | 39013 ft | 518 kts | 112° |
| 2026-05-04 00:50 | 39.88926 | 86.68284 | 39003 ft | 517 kts | 112° |
| 2026-05-04 00:51 | 39.86482 | 86.77068 | 38987 ft | 517 kts | 113° |
| 2026-05-04 00:51 | 39.84034 | 86.85832 | 39015 ft | 518 kts | 112° |
| 2026-05-04 00:52 | 39.81566 | 86.94634 | 39023 ft | 518 kts | 112° |
| 2026-05-04 00:52 | 39.79091 | 87.03433 | 39012 ft | 516 kts | 112° |
| 2026-05-04 00:53 | 39.76613 | 87.12214 | 39030 ft | 520 kts | 112° |
| 2026-05-04 00:53 | 39.74134 | 87.20968 | 39015 ft | 517 kts | 112° |
| 2026-05-04 00:54 | 39.71639 | 87.29750 | 39027 ft | 519 kts | 112° |
| 2026-05-04 00:54 | 39.69139 | 87.38517 | 39017 ft | 518 kts | 112° |
| 2026-05-04 00:55 | 39.66650 | 87.47217 | 39017 ft | 517 kts | 112° |
| 2026-05-04 00:55 | 39.64138 | 87.55967 | 39014 ft | 518 kts | 112° |
| 2026-05-04 00:56 | 39.61618 | 87.64719 | 39010 ft | 520 kts | 112° |
| 2026-05-04 00:56 | 39.59094 | 87.73455 | 39009 ft | 519 kts | 113° |
| 2026-05-04 00:57 | 39.56542 | 87.82257 | 39002 ft | 520 kts | 113° |
| 2026-05-04 00:57 | 39.53983 | 87.91053 | 39000 ft | 520 kts | 113° |
| 2026-05-04 00:58 | 39.51442 | 87.99759 | 38993 ft | 519 kts | 113° |
| 2026-05-04 00:58 | 39.48859 | 88.08581 | 38985 ft | 522 kts | 113° |
| 2026-05-04 00:59 | 39.46283 | 88.17351 | 38983 ft | 521 kts | 113° |
| 2026-05-04 00:59 | 39.43696 | 88.26125 | 38987 ft | 522 kts | 113° |
| 2026-05-04 01:00 | 39.41114 | 88.34859 | 38994 ft | 522 kts | 113° |
| 2026-05-04 01:00 | 39.38506 | 88.43649 | 39011 ft | 521 kts | 112° |
| 2026-05-04 01:01 | 39.35911 | 88.52366 | 39028 ft | 521 kts | 112° |
| 2026-05-04 01:01 | 39.33313 | 88.61067 | 39032 ft | 521 kts | 112° |
| 2026-05-04 01:02 | 39.30695 | 88.69804 | 39029 ft | 520 kts | 113° |
| 2026-05-04 01:02 | 39.28099 | 88.78442 | 39038 ft | 521 kts | 113° |
| 2026-05-04 01:03 | 39.25460 | 88.87195 | 39059 ft | 520 kts | 113° |
| 2026-05-04 01:03 | 39.22844 | 88.95843 | 39059 ft | 520 kts | 113° |
| 2026-05-04 01:04 | 39.20204 | 89.04539 | 39087 ft | 520 kts | 113° |
| 2026-05-04 01:04 | 39.17569 | 89.13194 | 39119 ft | 522 kts | 113° |
| 2026-05-04 01:05 | 39.14913 | 89.21890 | 39143 ft | 522 kts | 112° |
| 2026-05-04 01:05 | 39.12262 | 89.30546 | 39187 ft | 520 kts | 113° |
| 2026-05-04 01:06 | 39.09608 | 89.39178 | 39223 ft | 522 kts | 113° |
| 2026-05-04 01:06 | 39.06949 | 89.47803 | 39284 ft | 522 kts | 112° |
| 2026-05-04 01:07 | 39.04261 | 89.56492 | 39323 ft | 523 kts | 112° |
| 2026-05-04 01:07 | 39.01564 | 89.65185 | 39366 ft | 525 kts | 113° |
| 2026-05-04 01:08 | 38.98849 | 89.73907 | 39424 ft | 525 kts | 113° |
| 2026-05-04 01:08 | 38.96143 | 89.82577 | 39407 ft | 522 kts | 113° |
| 2026-05-04 01:09 | 38.93428 | 89.91241 | 39442 ft | 526 kts | 113° |
| 2026-05-04 01:09 | 38.90704 | 89.99913 | 39448 ft | 524 kts | 113° |
| 2026-05-04 01:10 | 38.87962 | 90.08611 | 39454 ft | 526 kts | 113° |
| 2026-05-04 01:10 | 38.85226 | 90.17268 | 39454 ft | 525 kts | 113° |
| 2026-05-04 01:11 | 38.82483 | 90.25914 | 39457 ft | 527 kts | 113° |
| 2026-05-04 01:11 | 38.79734 | 90.34555 | 39485 ft | 524 kts | 113° |
| 2026-05-04 01:12 | 38.76978 | 90.43196 | 39479 ft | 526 kts | 112° |
| 2026-05-04 01:12 | 38.74213 | 90.51841 | 39474 ft | 523 kts | 112° |
| 2026-05-04 01:13 | 38.71455 | 90.60435 | 39488 ft | 524 kts | 112° |
| 2026-05-04 01:13 | 38.68687 | 90.69032 | 39495 ft | 525 kts | 114° |
| 2026-05-04 01:14 | 38.66137 | 90.77725 | 39502 ft | 523 kts | 110° |
| 2026-05-04 01:14 | 38.63723 | 90.86511 | 39495 ft | 526 kts | 110° |
| 2026-05-04 01:15 | 38.61279 | 90.95317 | 39493 ft | 525 kts | 110° |
| 2026-05-04 01:15 | 38.58831 | 91.04079 | 39482 ft | 525 kts | 110° |
| 2026-05-04 01:16 | 38.56352 | 91.12902 | 39492 ft | 525 kts | 110° |
| 2026-05-04 01:16 | 38.53891 | 91.21619 | 39471 ft | 524 kts | 110° |
| 2026-05-04 01:17 | 38.51407 | 91.30386 | 39469 ft | 525 kts | 110° |
| 2026-05-04 01:17 | 38.48919 | 91.39130 | 39471 ft | 524 kts | 110° |
| 2026-05-04 01:18 | 38.46426 | 91.47864 | 39468 ft | 526 kts | 110° |
| 2026-05-04 01:18 | 38.43901 | 91.56679 | 39462 ft | 525 kts | 110° |
| 2026-05-04 01:19 | 38.41392 | 91.65410 | 39476 ft | 524 kts | 110° |
| 2026-05-04 01:19 | 38.38882 | 91.74116 | 39464 ft | 524 kts | 110° |
| 2026-05-04 01:20 | 38.36384 | 91.82752 | 39457 ft | 523 kts | 110° |
| 2026-05-04 01:20 | 38.33857 | 91.91461 | 39449 ft | 524 kts | 110° |
| 2026-05-04 01:21 | 38.31340 | 92.00108 | 39448 ft | 524 kts | 110° |
| 2026-05-04 01:21 | 38.28805 | 92.08785 | 39447 ft | 523 kts | 110° |
| 2026-05-04 01:22 | 38.26263 | 92.17461 | 39437 ft | 524 kts | 110° |
| 2026-05-04 01:22 | 38.23711 | 92.26141 | 39445 ft | 525 kts | 110° |
| 2026-05-04 01:23 | 38.21163 | 92.34783 | 39442 ft | 523 kts | 110° |
| 2026-05-04 01:23 | 38.18590 | 92.43480 | 39447 ft | 525 kts | 110° |
| 2026-05-04 01:24 | 38.15887 | 92.52055 | 39454 ft | 526 kts | 115° |
| 2026-05-04 01:24 | 38.12790 | 92.60432 | 39451 ft | 523 kts | 115° |
| 2026-05-04 01:25 | 38.09681 | 92.68782 | 39439 ft | 524 kts | 116° |
| 2026-05-04 01:25 | 38.06547 | 92.77181 | 39442 ft | 527 kts | 115° |
| 2026-05-04 01:26 | 38.03415 | 92.85551 | 39439 ft | 524 kts | 116° |
| 2026-05-04 01:26 | 38.00265 | 92.93945 | 39448 ft | 526 kts | 116° |
| 2026-05-04 01:27 | 37.97123 | 93.02299 | 39446 ft | 525 kts | 116° |
| 2026-05-04 01:27 | 37.93974 | 93.10644 | 39439 ft | 526 kts | 116° |
| 2026-05-04 01:28 | 37.90830 | 93.18957 | 39438 ft | 526 kts | 116° |
| 2026-05-04 01:28 | 37.87644 | 93.27357 | 39436 ft | 526 kts | 116° |
| 2026-05-04 01:29 | 37.84489 | 93.35654 | 39431 ft | 527 kts | 115° |
| 2026-05-04 01:29 | 37.81311 | 93.43988 | 39429 ft | 526 kts | 115° |
| 2026-05-04 01:30 | 37.78133 | 93.52297 | 39425 ft | 527 kts | 115° |
| 2026-05-04 01:30 | 37.74950 | 93.60602 | 39433 ft | 526 kts | 115° |
| 2026-05-04 01:31 | 37.71747 | 93.68933 | 39424 ft | 527 kts | 116° |
| 2026-05-04 01:31 | 37.68557 | 93.77209 | 39426 ft | 526 kts | 116° |
| 2026-05-04 01:32 | 37.65352 | 93.85500 | 39426 ft | 527 kts | 116° |
| 2026-05-04 01:32 | 37.62128 | 93.93819 | 39420 ft | 527 kts | 116° |
| 2026-05-04 01:33 | 37.58899 | 94.02129 | 39427 ft | 528 kts | 116° |
| 2026-05-04 01:33 | 37.55684 | 94.10381 | 39445 ft | 529 kts | 116° |
| 2026-05-04 01:34 | 37.52451 | 94.18658 | 39440 ft | 528 kts | 116° |
| 2026-05-04 01:34 | 37.49195 | 94.26971 | 39448 ft | 528 kts | 116° |
| 2026-05-04 01:35 | 37.45930 | 94.35284 | 39446 ft | 530 kts | 116° |
| 2026-05-04 01:35 | 37.42687 | 94.43521 | 39437 ft | 529 kts | 116° |
| 2026-05-04 01:36 | 37.39410 | 94.51822 | 39448 ft | 529 kts | 116° |
| 2026-05-04 01:36 | 37.36135 | 94.60093 | 39446 ft | 529 kts | 116° |
| 2026-05-04 01:37 | 37.32845 | 94.68385 | 39441 ft | 529 kts | 117° |
| 2026-05-04 01:37 | 37.29554 | 94.76654 | 39439 ft | 530 kts | 117° |
| 2026-05-04 01:38 | 37.26263 | 94.84903 | 39430 ft | 529 kts | 117° |
| 2026-05-04 01:38 | 37.22960 | 94.93159 | 39436 ft | 530 kts | 117° |
| 2026-05-04 01:39 | 37.19635 | 95.01450 | 39439 ft | 531 kts | 117° |
| 2026-05-04 01:39 | 37.16328 | 95.09675 | 39428 ft | 532 kts | 116° |
| 2026-05-04 01:40 | 37.12988 | 95.17959 | 39438 ft | 531 kts | 117° |
| 2026-05-04 01:40 | 37.09681 | 95.26140 | 39442 ft | 530 kts | 117° |
| 2026-05-04 01:41 | 37.06344 | 95.34373 | 39446 ft | 531 kts | 116° |
| 2026-05-04 01:41 | 37.02999 | 95.42606 | 39447 ft | 531 kts | 116° |
| 2026-05-04 01:42 | 36.99662 | 95.50801 | 39442 ft | 531 kts | 116° |
| 2026-05-04 01:42 | 36.96395 | 95.59089 | 39453 ft | 531 kts | 115° |
| 2026-05-04 01:43 | 36.93121 | 95.67423 | 39455 ft | 533 kts | 116° |
| 2026-05-04 01:43 | 36.89860 | 95.75692 | 39448 ft | 530 kts | 116° |
| 2026-05-04 01:44 | 36.86603 | 95.83923 | 39485 ft | 532 kts | 116° |
| 2026-05-04 01:44 | 36.83318 | 95.92200 | 39488 ft | 532 kts | 116° |
| 2026-05-04 01:45 | 36.80029 | 96.00462 | 39488 ft | 532 kts | 116° |
| 2026-05-04 01:45 | 36.75127 | 96.12800 | 39516 ft | 532 kts | 116° |
| 2026-05-04 01:46 | 36.71846 | 96.21088 | 39534 ft | 532 kts | 116° |
| 2026-05-04 01:46 | 36.68556 | 96.29377 | 39548 ft | 533 kts | 116° |
| 2026-05-04 01:47 | 36.65279 | 96.37607 | 39574 ft | 530 kts | 115° |
| 2026-05-04 01:47 | 36.61992 | 96.45840 | 39551 ft | 533 kts | 116° |
| 2026-05-04 01:48 | 36.58680 | 96.54117 | 39577 ft | 532 kts | 116° |
| 2026-05-04 01:48 | 36.55399 | 96.62329 | 39585 ft | 531 kts | 115° |
| 2026-05-04 01:49 | 36.52158 | 96.70592 | 39582 ft | 533 kts | 115° |
| 2026-05-04 01:49 | 36.48862 | 96.78971 | 39592 ft | 534 kts | 115° |
| 2026-05-04 01:50 | 36.45590 | 96.87262 | 39566 ft | 532 kts | 115° |
| 2026-05-04 01:50 | 36.42347 | 96.95459 | 39618 ft | 534 kts | 115° |
| 2026-05-04 01:51 | 36.39033 | 97.03809 | 39621 ft | 533 kts | 115° |
| 2026-05-04 01:51 | 36.35775 | 97.11996 | 39611 ft | 533 kts | 115° |
| 2026-05-04 01:52 | 36.32482 | 97.20248 | 39629 ft | 534 kts | 115° |
| 2026-05-04 01:52 | 36.29180 | 97.28504 | 39628 ft | 533 kts | 115° |
| 2026-05-04 01:53 | 36.25897 | 97.36691 | 39627 ft | 532 kts | 115° |
| 2026-05-04 01:53 | 36.22593 | 97.44909 | 39614 ft | 532 kts | 116° |
| 2026-05-04 01:54 | 36.19273 | 97.53143 | 39632 ft | 534 kts | 115° |
| 2026-05-04 01:54 | 36.15960 | 97.61342 | 39613 ft | 532 kts | 116° |
| 2026-05-04 01:55 | 36.12693 | 97.69632 | 39583 ft | 533 kts | 115° |
| 2026-05-04 01:55 | 36.09518 | 97.77885 | 39589 ft | 534 kts | 115° |
| 2026-05-04 01:56 | 36.06313 | 97.86183 | 39588 ft | 532 kts | 115° |
| 2026-05-04 01:56 | 36.03123 | 97.94409 | 39582 ft | 534 kts | 115° |
| 2026-05-04 01:57 | 35.99913 | 98.02660 | 39586 ft | 533 kts | 115° |
| 2026-05-04 01:57 | 35.96692 | 98.10916 | 39609 ft | 534 kts | 115° |
| 2026-05-04 01:58 | 35.93460 | 98.19173 | 39583 ft | 534 kts | 115° |
| 2026-05-04 01:58 | 35.90214 | 98.27447 | 39615 ft | 535 kts | 115° |
| 2026-05-04 01:59 | 35.86975 | 98.35684 | 39622 ft | 535 kts | 115° |
| 2026-05-04 01:59 | 35.83716 | 98.43947 | 39647 ft | 535 kts | 115° |
| 2026-05-04 02:00 | 35.80454 | 98.52198 | 39655 ft | 535 kts | 115° |
| 2026-05-04 02:00 | 35.77192 | 98.60426 | 39715 ft | 536 kts | 115° |
| 2026-05-04 02:01 | 35.73892 | 98.68730 | 39707 ft | 534 kts | 115° |
| 2026-05-04 02:01 | 35.70616 | 98.76951 | 39692 ft | 537 kts | 115° |
| 2026-05-04 02:02 | 35.67353 | 98.85120 | 39714 ft | 536 kts | 115° |
| 2026-05-04 02:02 | 35.64043 | 98.93386 | 39713 ft | 537 kts | 115° |
| 2026-05-04 02:03 | 35.60762 | 99.01558 | 39734 ft | 536 kts | 115° |
| 2026-05-04 02:03 | 35.57447 | 99.09796 | 39733 ft | 536 kts | 115° |
| 2026-05-04 02:04 | 35.54160 | 99.17943 | 39741 ft | 535 kts | 115° |
| 2026-05-04 02:04 | 35.50852 | 99.26121 | 39685 ft | 533 kts | 115° |
| 2026-05-04 02:05 | 35.47563 | 99.34233 | 39695 ft | 536 kts | 115° |
| 2026-05-04 02:05 | 35.44251 | 99.42381 | 39651 ft | 536 kts | 115° |
| 2026-05-04 02:06 | 35.40908 | 99.50585 | 39671 ft | 536 kts | 115° |
| 2026-05-04 02:06 | 35.37556 | 99.58791 | 39674 ft | 537 kts | 115° |
| 2026-05-04 02:07 | 35.34221 | 99.66933 | 39685 ft | 535 kts | 116° |
| 2026-05-04 02:07 | 35.30879 | 99.75074 | 39688 ft | 537 kts | 116° |
| 2026-05-04 02:08 | 35.27523 | 99.83228 | 39703 ft | 536 kts | 116° |
| 2026-05-04 02:08 | 35.24157 | 99.91387 | 39681 ft | 535 kts | 116° |
| 2026-05-04 02:09 | 35.20798 | 99.99509 | 39664 ft | 537 kts | 116° |
| 2026-05-04 02:09 | 35.17411 | 100.07678 | 39681 ft | 537 kts | 116° |
| 2026-05-04 02:10 | 35.14024 | 100.15828 | 39693 ft | 537 kts | 116° |
| 2026-05-04 02:10 | 35.10636 | 100.23961 | 39697 ft | 538 kts | 116° |
| 2026-05-04 02:11 | 35.07238 | 100.32096 | 39729 ft | 540 kts | 116° |
| 2026-05-04 02:11 | 35.03811 | 100.40282 | 39706 ft | 537 kts | 116° |
| 2026-05-04 02:12 | 35.00396 | 100.48419 | 39704 ft | 539 kts | 116° |
| 2026-05-04 02:12 | 34.96997 | 100.56499 | 39698 ft | 539 kts | 116° |
| 2026-05-04 02:13 | 34.93588 | 100.64583 | 39682 ft | 538 kts | 116° |
| 2026-05-04 02:13 | 34.90143 | 100.72733 | 39671 ft | 539 kts | 116° |
| 2026-05-04 02:14 | 34.86694 | 100.80873 | 39663 ft | 539 kts | 117° |
| 2026-05-04 02:14 | 34.83251 | 100.88979 | 39672 ft | 538 kts | 116° |
| 2026-05-04 02:15 | 34.79794 | 100.97097 | 39670 ft | 540 kts | 117° |
| 2026-05-04 02:15 | 34.76326 | 101.05223 | 39679 ft | 539 kts | 117° |
| 2026-05-04 02:16 | 34.72881 | 101.13277 | 39683 ft | 540 kts | 117° |
| 2026-05-04 02:16 | 34.69407 | 101.21377 | 39670 ft | 538 kts | 117° |
| 2026-05-04 02:17 | 34.65925 | 101.29475 | 39664 ft | 541 kts | 116° |
| 2026-05-04 02:17 | 34.62468 | 101.37499 | 39662 ft | 539 kts | 117° |
| 2026-05-04 02:18 | 34.58981 | 101.45573 | 39669 ft | 539 kts | 116° |
| 2026-05-04 02:18 | 34.55490 | 101.53635 | 39670 ft | 538 kts | 117° |
| 2026-05-04 02:19 | 34.52008 | 101.61660 | 39669 ft | 538 kts | 117° |
| 2026-05-04 02:19 | 34.48508 | 101.69707 | 39641 ft | 539 kts | 117° |
| 2026-05-04 02:20 | 34.45003 | 101.77747 | 39654 ft | 541 kts | 117° |
| 2026-05-04 02:20 | 34.41484 | 101.85800 | 39662 ft | 539 kts | 117° |
| 2026-05-04 02:21 | 34.37974 | 101.93813 | 39670 ft | 542 kts | 117° |
| 2026-05-04 02:21 | 34.34458 | 102.01821 | 39683 ft | 541 kts | 117° |
| 2026-05-04 02:22 | 34.30905 | 102.09895 | 39658 ft | 539 kts | 117° |
| 2026-05-04 02:22 | 34.27403 | 102.17834 | 39659 ft | 539 kts | 117° |
| 2026-05-04 02:23 | 34.23854 | 102.25863 | 39630 ft | 540 kts | 117° |
| 2026-05-04 02:23 | 34.20312 | 102.33854 | 39651 ft | 540 kts | 117° |
| 2026-05-04 02:24 | 34.16795 | 102.41917 | 39643 ft | 540 kts | 116° |
| 2026-05-04 02:24 | 34.13366 | 102.49974 | 39638 ft | 540 kts | 116° |
| 2026-05-04 02:25 | 34.09923 | 102.58037 | 39644 ft | 539 kts | 116° |
| 2026-05-04 02:25 | 34.06463 | 102.66113 | 39650 ft | 542 kts | 117° |
| 2026-05-04 02:26 | 34.02990 | 102.74196 | 39642 ft | 540 kts | 117° |
| 2026-05-04 02:26 | 33.99539 | 102.82206 | 39647 ft | 541 kts | 117° |
| 2026-05-04 02:27 | 33.96072 | 102.90234 | 39657 ft | 540 kts | 117° |
| 2026-05-04 02:27 | 33.92597 | 102.98260 | 39644 ft | 539 kts | 117° |
| 2026-05-04 02:28 | 33.89130 | 103.06249 | 39632 ft | 540 kts | 117° |
| 2026-05-04 02:28 | 33.85651 | 103.14247 | 39618 ft | 538 kts | 117° |
| 2026-05-04 02:29 | 33.82173 | 103.22223 | 39609 ft | 541 kts | 117° |
| 2026-05-04 02:29 | 33.78673 | 103.30231 | 39598 ft | 539 kts | 117° |
| 2026-05-04 02:30 | 33.75169 | 103.38231 | 39588 ft | 538 kts | 117° |
| 2026-05-04 02:30 | 33.71684 | 103.46170 | 39594 ft | 539 kts | 117° |
| 2026-05-04 02:31 | 33.68174 | 103.54147 | 39567 ft | 540 kts | 117° |
| 2026-05-04 02:31 | 33.64678 | 103.62074 | 39580 ft | 538 kts | 117° |
| 2026-05-04 02:32 | 33.62899 | 103.66101 | 39697 ft | 547 kts | 118° |
| 2026-05-04 02:32 | 33.61110 | 103.70145 | 40190 ft | 548 kts | 118° |
| 2026-05-04 02:32 | 33.59337 | 103.74151 | 40974 ft | 542 kts | 117° |
| 2026-05-04 02:32 | 33.57559 | 103.78162 | 41504 ft | 541 kts | 118° |
| 2026-05-04 02:33 | 33.54031 | 103.86104 | 41561 ft | 543 kts | 118° |
| 2026-05-04 02:33 | 33.50478 | 103.94088 | 41571 ft | 542 kts | 118° |
| 2026-05-04 02:34 | 33.46929 | 104.02043 | 41565 ft | 541 kts | 118° |
| 2026-05-04 02:34 | 33.43360 | 104.10028 | 41565 ft | 540 kts | 118° |
| 2026-05-04 02:35 | 33.39777 | 104.17959 | 41570 ft | 542 kts | 122° |
| 2026-05-04 02:35 | 33.35119 | 104.24969 | 41538 ft | 539 kts | 139° |
| 2026-05-04 02:36 | 33.29123 | 104.30157 | 41509 ft | 527 kts | 157° |
| 2026-05-04 02:36 | 33.22528 | 104.33935 | 41497 ft | 526 kts | 160° |
| 2026-05-04 02:37 | 33.15865 | 104.37594 | 41500 ft | 526 kts | 160° |
| 2026-05-04 02:37 | 33.09157 | 104.41229 | 41510 ft | 525 kts | 160° |
| 2026-05-04 02:38 | 33.02474 | 104.44823 | 41499 ft | 527 kts | 161° |
| 2026-05-04 02:38 | 32.95797 | 104.48394 | 41455 ft | 525 kts | 160° |
| 2026-05-04 02:39 | 32.89103 | 104.51962 | 41482 ft | 527 kts | 161° |
| 2026-05-04 02:39 | 32.82429 | 104.55510 | 41507 ft | 524 kts | 161° |
| 2026-05-04 02:40 | 32.75570 | 104.58339 | 41491 ft | 514 kts | 175° |
| 2026-05-04 02:40 | 32.68580 | 104.59096 | 41509 ft | 505 kts | 185° |
| 2026-05-04 02:41 | 32.61489 | 104.59434 | 41468 ft | 503 kts | 185° |
| 2026-05-04 02:41 | 32.54511 | 104.59757 | 41509 ft | 500 kts | 185° |
| 2026-05-04 02:42 | 32.50959 | 104.59921 | 41367 ft | 502 kts | 185° |
| 2026-05-04 02:42 | 32.47489 | 104.60083 | 41414 ft | 502 kts | 185° |
| 2026-05-04 02:42 | 32.40472 | 104.60408 | 41391 ft | 503 kts | 185° |
| 2026-05-04 02:43 | 32.33461 | 104.60786 | 41391 ft | 504 kts | 185° |
| 2026-05-04 02:43 | 32.26458 | 104.61176 | 41354 ft | 500 kts | 185° |
| 2026-05-04 02:44 | 32.19503 | 104.61557 | 41351 ft | 504 kts | 184° |
| 2026-05-04 02:44 | 32.12460 | 104.61945 | 41349 ft | 504 kts | 185° |
| 2026-05-04 02:45 | 32.05490 | 104.62327 | 41351 ft | 500 kts | 185° |
| 2026-05-04 02:45 | 31.98513 | 104.62705 | 41346 ft | 504 kts | 185° |
| 2026-05-04 02:46 | 31.91528 | 104.63087 | 41333 ft | 501 kts | 185° |
| 2026-05-04 02:46 | 31.84563 | 104.63464 | 41311 ft | 500 kts | 185° |
| 2026-05-04 02:47 | 31.77568 | 104.63842 | 41299 ft | 503 kts | 185° |
| 2026-05-04 02:47 | 31.70597 | 104.64132 | 41278 ft | 496 kts | 186° |
| 2026-05-04 02:48 | 31.63696 | 104.64396 | 41286 ft | 501 kts | 186° |
| 2026-05-04 02:48 | 31.56718 | 104.64671 | 41269 ft | 496 kts | 186° |
| 2026-05-04 02:49 | 31.49817 | 104.64940 | 41263 ft | 499 kts | 186° |
| 2026-05-04 02:49 | 31.42890 | 104.65215 | 41238 ft | 495 kts | 186° |
| 2026-05-04 02:50 | 31.35902 | 104.65488 | 41229 ft | 497 kts | 187° |
| 2026-05-04 02:50 | 31.28989 | 104.65762 | 41253 ft | 493 kts | 187° |
| 2026-05-04 02:51 | 31.22118 | 104.66029 | 41225 ft | 497 kts | 187° |
| 2026-05-04 02:51 | 31.15221 | 104.66301 | 41244 ft | 495 kts | 186° |
| 2026-05-04 02:52 | 31.08338 | 104.66573 | 41271 ft | 493 kts | 187° |
| 2026-05-04 02:52 | 31.01484 | 104.66960 | 41173 ft | 494 kts | 183° |
| 2026-05-04 02:53 | 30.94571 | 104.67781 | 41292 ft | 499 kts | 182° |
| 2026-05-04 02:53 | 30.91112 | 104.68188 | 41125 ft | 500 kts | 182° |
| 2026-05-04 02:53 | 30.87644 | 104.68595 | 41250 ft | 498 kts | 183° |
| 2026-05-04 02:54 | 30.80765 | 104.69389 | 41184 ft | 498 kts | 183° |
| 2026-05-04 02:54 | 30.73835 | 104.70180 | 41200 ft | 499 kts | 183° |
| 2026-05-04 02:55 | 30.63443 | 104.71359 | 41222 ft | 496 kts | 183° |
| 2026-05-04 02:56 | 30.56547 | 104.72136 | 41217 ft | 497 kts | 183° |
| 2026-05-04 02:56 | 30.49628 | 104.72910 | 41225 ft | 498 kts | 183° |
| 2026-05-04 02:57 | 30.42703 | 104.73682 | 41222 ft | 496 kts | 183° |
| 2026-05-04 02:57 | 30.35821 | 104.74449 | 41227 ft | 498 kts | 183° |
| 2026-05-04 02:58 | 30.28910 | 104.75218 | 41231 ft | 494 kts | 183° |
| 2026-05-04 02:58 | 30.22011 | 104.75982 | 41229 ft | 499 kts | 183° |
| 2026-05-04 02:59 | 30.15087 | 104.76751 | 41230 ft | 495 kts | 183° |
| 2026-05-04 02:59 | 30.08204 | 104.77512 | 41231 ft | 498 kts | 183° |
| 2026-05-04 03:00 | 30.01244 | 104.78281 | 41223 ft | 498 kts | 183° |
| 2026-05-04 03:00 | 29.94389 | 104.79039 | 41235 ft | 496 kts | 183° |
| 2026-05-04 03:01 | 29.87493 | 104.79801 | 41218 ft | 497 kts | 183° |
| 2026-05-04 03:01 | 29.80563 | 104.80566 | 41220 ft | 496 kts | 183° |
| 2026-05-04 03:02 | 29.73675 | 104.81324 | 41229 ft | 497 kts | 184° |
| 2026-05-04 03:02 | 29.66719 | 104.82089 | 41229 ft | 497 kts | 184° |
| 2026-05-04 03:03 | 29.59802 | 104.82848 | 41235 ft | 498 kts | 184° |
| 2026-05-04 03:03 | 29.52949 | 104.83601 | 41232 ft | 493 kts | 184° |
| 2026-05-04 03:04 | 29.46100 | 104.84350 | 41227 ft | 496 kts | 184° |
| 2026-05-04 03:04 | 29.39202 | 104.85104 | 41237 ft | 498 kts | 184° |
| 2026-05-04 03:05 | 29.32326 | 104.86469 | 41220 ft | 510 kts | 170° |
| 2026-05-04 03:05 | 29.25619 | 104.89629 | 41231 ft | 520 kts | 163° |
| 2026-05-04 03:06 | 29.19001 | 104.92987 | 41229 ft | 522 kts | 163° |
| 2026-05-04 03:06 | 29.12372 | 104.96342 | 41233 ft | 519 kts | 164° |
| 2026-05-04 03:07 | 29.05681 | 104.99725 | 41220 ft | 522 kts | 163° |
| 2026-05-04 03:07 | 28.99014 | 105.03093 | 41234 ft | 523 kts | 163° |
| 2026-05-04 03:08 | 28.92364 | 105.06444 | 41232 ft | 522 kts | 164° |
| 2026-05-04 03:08 | 28.85706 | 105.09776 | 41231 ft | 519 kts | 163° |
| 2026-05-04 03:09 | 28.79092 | 105.13080 | 41230 ft | 518 kts | 164° |
| 2026-05-04 03:09 | 28.72541 | 105.16734 | 41231 ft | 526 kts | 158° |
| 2026-05-04 03:10 | 28.66111 | 105.20702 | 41237 ft | 524 kts | 158° |
| 2026-05-04 03:10 | 28.59698 | 105.24626 | 41247 ft | 525 kts | 158° |
| 2026-05-04 03:11 | 28.53254 | 105.28545 | 41248 ft | 520 kts | 159° |
| 2026-05-04 03:11 | 28.46844 | 105.32424 | 41254 ft | 524 kts | 159° |
| 2026-05-04 03:12 | 28.40397 | 105.36317 | 41267 ft | 521 kts | 159° |
| 2026-05-04 03:12 | 28.33983 | 105.40178 | 41281 ft | 521 kts | 159° |
| 2026-05-04 03:13 | 28.27531 | 105.44055 | 41290 ft | 522 kts | 159° |
| 2026-05-04 03:13 | 28.21125 | 105.47900 | 41303 ft | 521 kts | 159° |
| 2026-05-04 03:14 | 28.14696 | 105.51751 | 41314 ft | 522 kts | 159° |
| 2026-05-04 03:14 | 28.08242 | 105.55569 | 41319 ft | 516 kts | 162° |
| 2026-05-04 03:15 | 28.01467 | 105.57925 | 41315 ft | 500 kts | 179° |
| 2026-05-04 03:15 | 27.94558 | 105.59066 | 41321 ft | 497 kts | 180° |
| 2026-05-04 03:16 | 27.87695 | 105.60158 | 41315 ft | 499 kts | 180° |
| 2026-05-04 03:16 | 27.80805 | 105.61530 | 41312 ft | 505 kts | 171° |
| 2026-05-04 03:17 | 27.74282 | 105.64752 | 41318 ft | 516 kts | 158° |
| 2026-05-04 03:17 | 27.67954 | 105.68621 | 41312 ft | 518 kts | 158° |
| 2026-05-04 03:18 | 27.61468 | 105.72227 | 41316 ft | 513 kts | 162° |
| 2026-05-04 03:18 | 27.54997 | 105.75696 | 41332 ft | 514 kts | 161° |
| 2026-05-04 03:19 | 27.48546 | 105.79164 | 41338 ft | 512 kts | 161° |
| 2026-05-04 03:19 | 27.42137 | 105.82612 | 41340 ft | 512 kts | 161° |
| 2026-05-04 03:20 | 27.35666 | 105.86091 | 41341 ft | 513 kts | 161° |
| 2026-05-04 03:20 | 27.29222 | 105.89555 | 41355 ft | 512 kts | 161° |
| 2026-05-04 03:21 | 27.22827 | 105.92989 | 41350 ft | 509 kts | 161° |
| 2026-05-04 03:21 | 27.16422 | 105.96424 | 41345 ft | 509 kts | 161° |
| 2026-05-04 03:22 | 27.09980 | 105.99875 | 41347 ft | 508 kts | 161° |
| 2026-05-04 03:22 | 27.03969 | 106.04232 | 41336 ft | 524 kts | 144° |
| 2026-05-04 03:23 | 26.99093 | 106.10387 | 41355 ft | 532 kts | 131° |
| 2026-05-04 03:23 | 26.94628 | 106.17067 | 41344 ft | 532 kts | 130° |
| 2026-05-04 03:24 | 26.90163 | 106.23725 | 41347 ft | 530 kts | 131° |
| 2026-05-04 03:24 | 26.85725 | 106.30318 | 41340 ft | 532 kts | 131° |
| 2026-05-04 03:25 | 26.81250 | 106.36945 | 41354 ft | 531 kts | 131° |
| 2026-05-04 03:25 | 26.76793 | 106.43532 | 41345 ft | 531 kts | 131° |
| 2026-05-04 03:26 | 26.72330 | 106.50113 | 41351 ft | 530 kts | 130° |
| 2026-05-04 03:26 | 26.67871 | 106.56679 | 41351 ft | 530 kts | 131° |
| 2026-05-04 03:27 | 26.63404 | 106.63245 | 41343 ft | 529 kts | 131° |
| 2026-05-04 03:27 | 26.58993 | 106.69720 | 41341 ft | 529 kts | 131° |
| 2026-05-04 03:28 | 26.54532 | 106.76258 | 41329 ft | 530 kts | 131° |
| 2026-05-04 03:28 | 26.49693 | 106.82386 | 41346 ft | 523 kts | 140° |
| 2026-05-04 03:29 | 26.44469 | 106.88139 | 41342 ft | 522 kts | 141° |
| 2026-05-04 03:29 | 26.39283 | 106.93832 | 41332 ft | 522 kts | 141° |
| 2026-05-04 03:30 | 26.34115 | 106.99499 | 41343 ft | 522 kts | 140° |
| 2026-05-04 03:30 | 26.28915 | 107.05195 | 41342 ft | 522 kts | 141° |
| 2026-05-04 03:31 | 26.23776 | 107.10843 | 41331 ft | 520 kts | 141° |
| 2026-05-04 03:31 | 26.18594 | 107.16533 | 41331 ft | 521 kts | 140° |
| 2026-05-04 03:32 | 26.13426 | 107.22201 | 41345 ft | 522 kts | 141° |
| 2026-05-04 03:32 | 26.08283 | 107.27834 | 41324 ft | 520 kts | 141° |
| 2026-05-04 03:33 | 26.03085 | 107.33517 | 41318 ft | 521 kts | 140° |
| 2026-05-04 03:33 | 25.97910 | 107.39170 | 41323 ft | 519 kts | 141° |
| 2026-05-04 03:34 | 25.92763 | 107.44784 | 41314 ft | 519 kts | 140° |
| 2026-05-04 03:34 | 25.87708 | 107.50291 | 41309 ft | 519 kts | 140° |
| 2026-05-04 03:35 | 25.82522 | 107.55933 | 41311 ft | 518 kts | 140° |
| 2026-05-04 03:35 | 25.77372 | 107.61529 | 41312 ft | 519 kts | 140° |
| 2026-05-04 03:36 | 25.72175 | 107.67168 | 41284 ft | 517 kts | 141° |
| 2026-05-04 03:36 | 25.67054 | 107.72760 | 41283 ft | 519 kts | 140° |
| 2026-05-04 03:37 | 25.61915 | 107.78391 | 41282 ft | 518 kts | 140° |
| 2026-05-04 03:37 | 25.56749 | 107.84040 | 41278 ft | 518 kts | 140° |
| 2026-05-04 03:38 | 25.51620 | 107.89641 | 41276 ft | 518 kts | 141° |
| 2026-05-04 03:38 | 25.46436 | 107.95228 | 41274 ft | 515 kts | 144° |
| 2026-05-04 03:39 | 25.40640 | 107.99769 | 41270 ft | 508 kts | 153° |
| 2026-05-04 03:39 | 25.34695 | 108.03993 | 41265 ft | 507 kts | 153° |
| 2026-05-04 03:40 | 25.28734 | 108.08219 | 41267 ft | 508 kts | 153° |
| 2026-05-04 03:40 | 25.22822 | 108.12408 | 41259 ft | 505 kts | 153° |
| 2026-05-04 03:41 | 25.16873 | 108.16616 | 41251 ft | 506 kts | 153° |
| 2026-05-04 03:41 | 25.10881 | 108.20850 | 41248 ft | 508 kts | 153° |
| 2026-05-04 03:42 | 25.04943 | 108.25043 | 41237 ft | 505 kts | 153° |
| 2026-05-04 03:42 | 24.98962 | 108.29258 | 41238 ft | 507 kts | 153° |
| 2026-05-04 03:43 | 24.93014 | 108.33447 | 41244 ft | 505 kts | 153° |
| 2026-05-04 03:43 | 24.87194 | 108.37541 | 41249 ft | 505 kts | 153° |
| 2026-05-04 03:44 | 24.81217 | 108.41739 | 41248 ft | 506 kts | 153° |
| 2026-05-04 03:44 | 24.75304 | 108.45889 | 41249 ft | 503 kts | 153° |
| 2026-05-04 03:45 | 24.69351 | 108.50062 | 41248 ft | 504 kts | 153° |
| 2026-05-04 03:45 | 24.63455 | 108.54189 | 41247 ft | 504 kts | 153° |
| 2026-05-04 03:46 | 24.57531 | 108.58334 | 41238 ft | 502 kts | 153° |
| 2026-05-04 03:46 | 24.51566 | 108.62498 | 41233 ft | 504 kts | 153° |
| 2026-05-04 03:47 | 24.45633 | 108.66640 | 41216 ft | 501 kts | 153° |
| 2026-05-04 03:47 | 24.39759 | 108.70734 | 41221 ft | 502 kts | 153° |
| 2026-05-04 03:48 | 24.33853 | 108.74845 | 41230 ft | 501 kts | 153° |
| 2026-05-04 03:48 | 24.27948 | 108.78952 | 41228 ft | 501 kts | 153° |
| 2026-05-04 03:49 | 24.22085 | 108.83024 | 41234 ft | 502 kts | 153° |
| 2026-05-04 03:49 | 24.16184 | 108.87118 | 41232 ft | 500 kts | 153° |
| 2026-05-04 03:50 | 24.10275 | 108.91215 | 41225 ft | 500 kts | 153° |
| 2026-05-04 03:50 | 24.04414 | 108.95271 | 41222 ft | 501 kts | 153° |
| 2026-05-04 03:51 | 23.98520 | 108.99348 | 41216 ft | 499 kts | 153° |
| 2026-05-04 03:51 | 23.92611 | 109.03430 | 41214 ft | 499 kts | 153° |
| 2026-05-04 03:52 | 23.86731 | 109.07488 | 41212 ft | 498 kts | 153° |
| 2026-05-04 03:52 | 23.81098 | 109.11947 | 41200 ft | 506 kts | 141° |
| 2026-05-04 03:53 | 23.76681 | 109.17994 | 41201 ft | 515 kts | 122° |
| 2026-05-04 03:53 | 23.74008 | 109.25255 | 41204 ft | 520 kts | 104° |
| 2026-05-04 03:54 | 23.72494 | 109.33009 | 41211 ft | 520 kts | 103° |
| 2026-05-04 03:54 | 23.71003 | 109.40691 | 41209 ft | 521 kts | 103° |
| 2026-05-04 03:55 | 23.69474 | 109.48407 | 41207 ft | 519 kts | 103° |
| 2026-05-04 03:55 | 23.67927 | 109.56117 | 41208 ft | 520 kts | 103° |
| 2026-05-04 03:56 | 23.66379 | 109.63762 | 41211 ft | 520 kts | 103° |
| 2026-05-04 03:56 | 23.64821 | 109.71355 | 41199 ft | 521 kts | 104° |
| 2026-05-04 03:57 | 23.63228 | 109.79076 | 41204 ft | 521 kts | 104° |
| 2026-05-04 03:57 | 23.61639 | 109.86758 | 41200 ft | 521 kts | 104° |
| 2026-05-04 03:58 | 23.59249 | 109.98264 | 41219 ft | 521 kts | 104° |
| 2026-05-04 03:58 | 23.57640 | 110.05988 | 41226 ft | 522 kts | 104° |
| 2026-05-04 03:59 | 23.56031 | 110.13690 | 41215 ft | 521 kts | 104° |
| 2026-05-04 03:59 | 23.54424 | 110.21362 | 41203 ft | 521 kts | 104° |
| 2026-05-04 04:00 | 23.52811 | 110.29037 | 41201 ft | 522 kts | 104° |
| 2026-05-04 04:00 | 23.51187 | 110.36750 | 41197 ft | 521 kts | 104° |
| 2026-05-04 04:01 | 23.49618 | 110.44453 | 41190 ft | 522 kts | 103° |
| 2026-05-04 04:01 | 23.48048 | 110.52191 | 41196 ft | 522 kts | 104° |
| 2026-05-04 04:02 | 23.46485 | 110.59872 | 40495 ft | 512 kts | 104° |
| 2026-05-04 04:02 | 23.45709 | 110.63668 | 39338 ft | 519 kts | 104° |
| 2026-05-04 04:02 | 23.44937 | 110.67439 | 38069 ft | 529 kts | 106° |
| 2026-05-04 04:03 | 23.44131 | 110.71368 | 36957 ft | 535 kts | 106° |
| 2026-05-04 04:03 | 23.43322 | 110.75275 | 36259 ft | 532 kts | 106° |
| 2026-05-04 04:03 | 23.42497 | 110.79195 | 35766 ft | 525 kts | 107° |
| 2026-05-04 04:03 | 23.41692 | 110.83015 | 35149 ft | 521 kts | 107° |
| 2026-05-04 04:04 | 23.40865 | 110.86925 | 34236 ft | 523 kts | 107° |
| 2026-05-04 04:04 | 23.40046 | 110.90789 | 33157 ft | 528 kts | 107° |
| 2026-05-04 04:04 | 23.39243 | 110.94571 | 32160 ft | 531 kts | 107° |
| 2026-05-04 04:04 | 23.38404 | 110.98529 | 31291 ft | 531 kts | 107° |
| 2026-05-04 04:05 | 23.37583 | 111.02399 | 30521 ft | 528 kts | 107° |
| 2026-05-04 04:05 | 23.36748 | 111.06324 | 29651 ft | 527 kts | 107° |
| 2026-05-04 04:05 | 23.35932 | 111.10167 | 29238 ft | 519 kts | 107° |
| 2026-05-04 04:05 | 23.35119 | 111.13982 | 29199 ft | 523 kts | 107° |
| 2026-05-04 04:06 | 23.33517 | 111.21712 | 29191 ft | 526 kts | 107° |
| 2026-05-04 04:06 | 23.31929 | 111.29504 | 29190 ft | 526 kts | 107° |
| 2026-05-04 04:07 | 23.30350 | 111.37219 | 29192 ft | 527 kts | 107° |
| 2026-05-04 04:07 | 23.28741 | 111.45050 | 29185 ft | 522 kts | 107° |
| 2026-05-04 04:08 | 23.27146 | 111.52793 | 29184 ft | 524 kts | 106° |
| 2026-05-04 04:08 | 23.25517 | 111.60534 | 29188 ft | 524 kts | 107° |
| 2026-05-04 04:09 | 23.23869 | 111.68310 | 29181 ft | 525 kts | 107° |
| 2026-05-04 04:09 | 23.22218 | 111.76083 | 29175 ft | 524 kts | 107° |
| 2026-05-04 04:10 | 23.20567 | 111.83846 | 29180 ft | 526 kts | 107° |
| 2026-05-04 04:10 | 23.18956 | 111.91600 | 29185 ft | 527 kts | 107° |
| 2026-05-04 04:11 | 23.17345 | 111.99352 | 29190 ft | 526 kts | 107° |
| 2026-05-04 04:11 | 23.16304 | 112.04346 | 29194 ft | 526 kts | 107° |
| 2026-05-04 04:12 | 23.14691 | 112.12066 | 29185 ft | 522 kts | 106° |
| 2026-05-04 04:12 | 23.13073 | 112.19787 | 29185 ft | 525 kts | 106° |
| 2026-05-04 04:13 | 23.11458 | 112.27471 | 29181 ft | 524 kts | 106° |
| 2026-05-04 04:13 | 23.09833 | 112.35189 | 29169 ft | 522 kts | 106° |
| 2026-05-04 04:14 | 23.08036 | 112.42889 | 29178 ft | 521 kts | 113° |
| 2026-05-04 04:14 | 23.04744 | 112.49774 | 29173 ft | 510 kts | 130° |
| 2026-05-04 04:15 | 23.00021 | 112.55367 | 29169 ft | 499 kts | 141° |
| 2026-05-04 04:15 | 22.94937 | 112.60511 | 29175 ft | 499 kts | 142° |
| 2026-05-04 04:16 | 22.89833 | 112.65620 | 29177 ft | 495 kts | 143° |
| 2026-05-04 04:16 | 22.84740 | 112.70689 | 29173 ft | 497 kts | 143° |
| 2026-05-04 04:17 | 22.79649 | 112.75741 | 29176 ft | 496 kts | 142° |
| 2026-05-04 04:17 | 22.74502 | 112.80833 | 29170 ft | 499 kts | 142° |
| 2026-05-04 04:18 | 22.69398 | 112.85876 | 29175 ft | 496 kts | 143° |
| 2026-05-04 04:18 | 22.64241 | 112.90960 | 29167 ft | 501 kts | 143° |
| 2026-05-04 04:19 | 22.59064 | 112.96060 | 29167 ft | 500 kts | 143° |
| 2026-05-04 04:19 | 22.53927 | 113.01116 | 29168 ft | 498 kts | 142° |
| 2026-05-04 04:20 | 22.48712 | 113.06240 | 29164 ft | 501 kts | 142° |
| 2026-05-04 04:20 | 22.46142 | 113.08768 | 29160 ft | 483 kts | 143° |
| 2026-05-04 04:20 | 22.43707 | 113.11166 | 29116 ft | 465 kts | 143° |
| 2026-05-04 04:21 | 22.41350 | 113.13483 | 28950 ft | 451 kts | 143° |
| 2026-05-04 04:21 | 22.39038 | 113.15752 | 28494 ft | 445 kts | 143° |
| 2026-05-04 04:21 | 22.36742 | 113.17999 | 27801 ft | 446 kts | 143° |
| 2026-05-04 04:21 | 22.34444 | 113.20248 | 27275 ft | 442 kts | 143° |
| 2026-05-04 04:22 | 22.32176 | 113.22472 | 27094 ft | 432 kts | 143° |
| 2026-05-04 04:22 | 22.29974 | 113.24627 | 26616 ft | 429 kts | 143° |
| 2026-05-04 04:22 | 22.27736 | 113.26812 | 26115 ft | 437 kts | 143° |
| 2026-05-04 04:22 | 22.25481 | 113.29014 | 25578 ft | 440 kts | 143° |
| 2026-05-04 04:23 | 22.23195 | 113.31247 | 25031 ft | 437 kts | 142° |
| 2026-05-04 04:23 | 22.21006 | 113.33387 | 24503 ft | 433 kts | 142° |
| 2026-05-04 04:23 | 22.20685 | 113.33701 | 24426 ft | 432 kts | 142° |
| 2026-05-04 04:23 | 22.18470 | 113.35864 | 23892 ft | 428 kts | 142° |
| 2026-05-04 04:24 | 22.16258 | 113.38024 | 23367 ft | 425 kts | 142° |
| 2026-05-04 04:24 | 22.14072 | 113.40157 | 22845 ft | 421 kts | 142° |
| 2026-05-04 04:24 | 22.11933 | 113.42244 | 22344 ft | 418 kts | 142° |
| 2026-05-04 04:24 | 22.09778 | 113.44344 | 21835 ft | 415 kts | 142° |
| 2026-05-04 04:25 | 22.07644 | 113.46423 | 21325 ft | 411 kts | 142° |
| 2026-05-04 04:25 | 22.05516 | 113.48497 | 20809 ft | 408 kts | 142° |
| 2026-05-04 04:25 | 22.03432 | 113.50525 | 20303 ft | 404 kts | 142° |
| 2026-05-04 04:25 | 22.01354 | 113.52548 | 19809 ft | 401 kts | 142° |
| 2026-05-04 04:26 | 21.99292 | 113.54552 | 19302 ft | 397 kts | 142° |
| 2026-05-04 04:26 | 21.97271 | 113.56574 | 18786 ft | 396 kts | 139° |
| 2026-05-04 04:26 | 21.95391 | 113.58731 | 18311 ft | 392 kts | 137° |
| 2026-05-04 04:26 | 21.93552 | 113.60867 | 17940 ft | 385 kts | 137° |
| 2026-05-04 04:27 | 21.91746 | 113.62954 | 17534 ft | 379 kts | 137° |
| 2026-05-04 04:27 | 21.89982 | 113.64982 | 17061 ft | 377 kts | 138° |
| 2026-05-04 04:27 | 21.88141 | 113.67092 | 16583 ft | 373 kts | 138° |
| 2026-05-04 04:27 | 21.86371 | 113.69115 | 16096 ft | 370 kts | 138° |
| 2026-05-04 04:28 | 21.84621 | 113.71113 | 15630 ft | 367 kts | 138° |
| 2026-05-04 04:28 | 21.82883 | 113.73141 | 15125 ft | 366 kts | 133° |
| 2026-05-04 04:28 | 21.81511 | 113.75442 | 14612 ft | 370 kts | 120° |
| 2026-05-04 04:28 | 21.80662 | 113.78050 | 14109 ft | 373 kts | 105° |
| 2026-05-04 04:29 | 21.80403 | 113.80830 | 13629 ft | 373 kts | 91° |
| 2026-05-04 04:29 | 21.80746 | 113.83575 | 13051 ft | 371 kts | 76° |
| 2026-05-04 04:29 | 21.81661 | 113.86113 | 12506 ft | 357 kts | 60° |
| 2026-05-04 04:29 | 21.83101 | 113.88221 | 11973 ft | 343 kts | 42° |
| 2026-05-04 04:30 | 21.85045 | 113.89617 | 11381 ft | 326 kts | 13° |
| 2026-05-04 04:30 | 21.87217 | 113.89886 | 11070 ft | 302 kts | 351° |
| 2026-05-04 04:30 | 21.89266 | 113.89631 | 10833 ft | 293 kts | 347° |
| 2026-05-04 04:30 | 21.91283 | 113.89316 | 10164 ft | 293 kts | 347° |
| 2026-05-04 04:31 | 21.93315 | 113.88980 | 9492 ft | 292 kts | 347° |
| 2026-05-04 04:31 | 21.95327 | 113.88651 | 8908 ft | 288 kts | 347° |
| 2026-05-04 04:31 | 21.97282 | 113.88333 | 8311 ft | 284 kts | 347° |
| 2026-05-04 04:31 | 21.99235 | 113.88007 | 7695 ft | 282 kts | 347° |
| 2026-05-04 04:32 | 22.01157 | 113.87673 | 7059 ft | 279 kts | 347° |
| 2026-05-04 04:32 | 22.03066 | 113.87324 | 6445 ft | 277 kts | 347° |
| 2026-05-04 04:32 | 22.04949 | 113.86930 | 5883 ft | 272 kts | 340° |
| 2026-05-04 04:32 | 22.06582 | 113.85938 | 5399 ft | 270 kts | 319° |
| 2026-05-04 04:33 | 22.07994 | 113.84603 | 5011 ft | 270 kts | 317° |
| 2026-05-04 04:33 | 22.09383 | 113.83251 | 4650 ft | 270 kts | 317° |
| 2026-05-04 04:33 | 22.10780 | 113.81889 | 4333 ft | 268 kts | 317° |
| 2026-05-04 04:33 | 22.12163 | 113.80538 | 4039 ft | 265 kts | 318° |
| 2026-05-04 04:34 | 22.13521 | 113.79211 | 3750 ft | 262 kts | 319° |
| 2026-05-04 04:34 | 22.14864 | 113.77897 | 3518 ft | 257 kts | 319° |
| 2026-05-04 04:34 | 22.16162 | 113.76625 | 3272 ft | 244 kts | 319° |
| 2026-05-04 04:34 | 22.17354 | 113.75455 | 3141 ft | 224 kts | 319° |
| 2026-05-04 04:35 | 22.18472 | 113.74374 | 3051 ft | 206 kts | 324° |
| 2026-05-04 04:35 | 22.19725 | 113.73772 | 2938 ft | 193 kts | 353° |
| 2026-05-04 04:35 | 22.21022 | 113.73898 | 2820 ft | 185 kts | 19° |
| 2026-05-04 04:35 | 22.22226 | 113.74438 | 2700 ft | 183 kts | 28° |
| 2026-05-04 04:36 | 22.23365 | 113.75069 | 2581 ft | 182 kts | 30° |
| 2026-05-04 04:36 | 22.24494 | 113.75724 | 2458 ft | 182 kts | 33° |
| 2026-05-04 04:36 | 22.25356 | 113.76669 | 2345 ft | 180 kts | 63° |
| 2026-05-04 04:36 | 22.25792 | 113.77953 | 2225 ft | 178 kts | 72° |
| 2026-05-04 04:37 | 22.26903 | 113.81444 | 1614 ft | 155 kts | 71° |
| 2026-05-04 04:37 | 22.27256 | 113.82532 | 1414 ft | 146 kts | 70° |
| 2026-05-04 04:38 | 22.27582 | 113.83534 | 1236 ft | 138 kts | 70° |
| 2026-05-04 04:38 | 22.27899 | 113.84510 | 1063 ft | 135 kts | 70° |
| 2026-05-04 04:38 | 22.28217 | 113.85490 | 887 ft | 137 kts | 69° |
| 2026-05-04 04:38 | 22.28534 | 113.86468 | 708 ft | 137 kts | 69° |
| 2026-05-04 04:39 | 22.28849 | 113.87439 | 530 ft | 136 kts | 69° |
| 2026-05-04 04:39 | 22.29164 | 113.88410 | 349 ft | 137 kts | 69° |
| 2026-05-04 04:39 | 22.29481 | 113.89381 | 170 ft | 136 kts | 69° |
| 2026-05-04 04:39 | 22.29800 | 113.90357 | 53 ft | 130 kts | 69° |
| 2026-05-04 04:40 | 22.30058 | 113.91157 | 41 ft | 94 kts | 71° |
| 2026-05-04 04:40 | 22.30236 | 113.91708 | 41 ft | 64 kts | 71° |
| 2026-05-04 04:40 | 22.30352 | 113.92066 | 41 ft | 39 kts | 71° |
| 2026-05-04 04:40 | 22.30352 | 113.92326 | 41 ft | 30 kts | 101° |
| 2026-05-04 04:41 | 22.30328 | 113.92531 | 41 ft | 22 kts | 87° |
| 2026-05-04 04:41 | 22.30351 | 113.92636 | 41 ft | 7 kts | 72° |
| 2026-05-04 04:41 | 22.30340 | 113.92692 | 41 ft | 8 kts | 140° |
| 2026-05-04 04:41 | 22.30255 | 113.92725 | 41 ft | 17 kts | 161° |
| 2026-05-04 04:42 | 22.30192 | 113.92744 | 41 ft | 8 kts | 180° |
| 2026-05-04 04:42 | 22.30147 | 113.92684 | 41 ft | 12 kts | 251° |
| 2026-05-04 04:42 | 22.30121 | 113.92600 | 41 ft | 12 kts | 252° |
| 2026-05-04 04:42 | 22.30111 | 113.92570 | 41 ft | 4 kts | 250° |
| 2026-05-04 04:43 | 22.30082 | 113.92538 | 41 ft | 7 kts | 196° |
| 2026-05-04 04:43 | 22.30047 | 113.92545 | 41 ft | 4 kts | 161° |
| 2026-05-04 04:43 | 22.30015 | 113.92556 | 41 ft | 2 kts | 160° |
| 2026-05-04 04:43 | 22.30005 | 113.92560 | 41 ft | 0 kts | 160° |